Terminal Aerodrome Forecast
Issued by NWS

Home | Current Version | Previous Version | Text Only | Print | Product List | Glossary On
Versions: 1 2 3 4 5 6 7 8 9 10 11 12 13 14 15
000
FTUS43 KABR 101700
TAFPIR
TAF
KPIR 101732Z 1018/1118 18009KT P6SM OVC028
     FM102000 18010KT P6SM SCT035 BKN150
     FM110300 14008KT P6SM FEW100 BKN250
     FM110800 VRB06KT P6SM FEW250
     FM111400 03006KT P6SM SKC=

USA.gov is the U.S. government's official web portal to all federal, state and local government web resources and services.